Time;durP1;ratioP1;P1;durP2;ratioP2;P2;SDS_P1;SDS_P2;PMS_P1;PMS_P2;Temp;Humidity;BMP_temperature;BMP_pressure;BME280_temperature;BME280_humidity;BME280_pressure;Samples;Min_cycle;Max_cycle;Signal;HPM_P1;HPM_P2
2021/07/16 00:01:34;;;;;;;5.27;2.47;;;;;;;;;;4525453;28;20128;-62
2021/07/16 00:03:44;;;;;;;5.30;2.40;;;;;;;;;;4502236;28;20034;-62
2021/07/16 00:05:55;;;;;;;6.10;2.70;;;;;;;;;;4544046;28;20048;-61
2021/07/16 00:08:05;;;;;;;5.00;2.57;;;;;;;;;;4541196;28;20096;-62
2021/07/16 00:10:19;;;;;;;7.00;2.93;;;;;;;;;;4540206;28;20039;-61
2021/07/16 00:12:29;;;;;;;5.35;2.30;;;;;;;;;;4544335;28;20047;-62
2021/07/16 00:14:39;;;;;;;5.27;2.90;;;;;;;;;;4524444;28;20037;-61
2021/07/16 00:16:50;;;;;;;5.50;2.70;;;;;;;;;;4545096;28;20432;-61
2021/07/16 00:19:01;;;;;;;6.27;2.70;;;;;;;;;;4542752;28;20033;-62
2021/07/16 00:21:11;;;;;;;4.23;2.50;;;;;;;;;;4541535;28;20517;-62
2021/07/16 00:23:22;;;;;;;6.33;2.63;;;;;;;;;;4541634;28;20387;-62
2021/07/16 00:25:32;;;;;;;6.50;2.80;;;;;;;;;;4541845;28;20313;-62
2021/07/16 00:27:43;;;;;;;5.37;2.57;;;;;;;;;;4525494;28;20033;-62
2021/07/16 00:29:53;;;;;;;4.83;2.57;;;;;;;;;;4539881;28;20449;-62
2021/07/16 00:32:04;;;;;;;4.43;2.37;;;;;;;;;;4541201;28;20033;-61
2021/07/16 00:34:15;;;;;;;5.22;2.63;;;;;;;;;;4525889;28;20116;-62
2021/07/16 00:36:25;;;;;;;4.00;2.47;;;;;;;;;;4524502;28;20066;-62
2021/07/16 00:38:36;;;;;;;7.20;2.70;;;;;;;;;;4522916;28;20037;-62
2021/07/16 00:40:46;;;;;;;4.37;2.53;;;;;;;;;;4523793;28;20522;-62
2021/07/16 00:42:57;;;;;;;6.47;2.50;;;;;;;;;;4543125;28;20817;-61
2021/07/16 00:45:09;;;;;;;4.83;2.40;;;;;;;;;;4524147;28;20087;-61
2021/07/16 00:47:19;;;;;;;4.07;2.17;;;;;;;;;;4525733;28;20131;-62
2021/07/16 00:49:30;;;;;;;7.10;2.60;;;;;;;;;;4541880;28;20045;-62
2021/07/16 00:51:41;;;;;;;5.55;2.40;;;;;;;;;;4542486;28;20033;-61
2021/07/16 00:53:52;;;;;;;5.85;2.50;;;;;;;;;;4510285;28;20034;-62
2021/07/16 00:56:02;;;;;;;6.87;2.70;;;;;;;;;;4524756;28;20693;-62
2021/07/16 00:58:16;;;;;;;7.10;3.00;;;;;;;;;;4525096;28;20136;-62
2021/07/16 01:00:27;;;;;;;5.43;2.35;;;;;;;;;;4523694;28;20062;-62
2021/07/16 01:02:38;;;;;;;4.47;2.70;;;;;;;;;;4540032;28;20825;-61
2021/07/16 01:04:48;;;;;;;5.47;2.60;;;;;;;;;;4540845;28;20037;-62
2021/07/16 01:06:59;;;;;;;5.97;2.60;;;;;;;;;;4523419;28;20045;-61
2021/07/16 01:09:09;;;;;;;5.43;2.60;;;;;;;;;;4541966;28;20099;-62
2021/07/16 01:11:20;;;;;;;6.70;2.80;;;;;;;;;;4525364;28;20044;-62
2021/07/16 01:13:30;;;;;;;4.43;2.17;;;;;;;;;;4542211;28;20085;-61
2021/07/16 01:15:41;;;;;;;4.13;2.40;;;;;;;;;;4539995;28;21111;-61
2021/07/16 01:17:53;;;;;;;5.57;2.40;;;;;;;;;;4540500;28;20937;-62
2021/07/16 01:20:08;;;;;;;4.88;2.35;;;;;;;;;;4525656;28;20612;-62
2021/07/16 01:22:21;;;;;;;5.00;2.50;;;;;;;;;;4543778;28;20536;-62
2021/07/16 01:24:31;;;;;;;5.38;2.70;;;;;;;;;;4522458;28;20076;-61
2021/07/16 01:26:42;;;;;;;4.07;2.27;;;;;;;;;;4526253;28;20684;-61
2021/07/16 01:28:53;;;;;;;6.25;2.58;;;;;;;;;;4524479;28;20037;-61
2021/07/16 01:31:05;;;;;;;4.75;2.70;;;;;;;;;;4522442;28;20033;-61
2021/07/16 01:33:17;;;;;;;5.68;2.55;;;;;;;;;;4525145;28;20124;-61
2021/07/16 01:35:28;;;;;;;6.80;2.72;;;;;;;;;;4507690;28;20030;-62
2021/07/16 01:37:40;;;;;;;5.88;2.83;;;;;;;;;;4543853;28;20585;-62
2021/07/16 01:39:50;;;;;;;5.05;2.67;;;;;;;;;;4527061;28;20071;-61
2021/07/16 01:42:11;;;;;;;5.43;2.63;;;;;;;;;;4542008;28;20531;-62
2021/07/16 01:44:21;;;;;;;4.78;2.70;;;;;;;;;;4541347;28;20600;-62
2021/07/16 01:46:32;;;;;;;5.40;2.57;;;;;;;;;;4539026;28;20036;-62
2021/07/16 01:48:43;;;;;;;5.45;2.40;;;;;;;;;;4540941;28;20083;-61
2021/07/16 01:50:53;;;;;;;5.50;2.73;;;;;;;;;;4524084;28;20121;-61
2021/07/16 01:53:04;;;;;;;5.50;2.43;;;;;;;;;;4540522;28;20037;-61
2021/07/16 01:55:16;;;;;;;4.10;2.40;;;;;;;;;;4494504;28;20043;-62
2021/07/16 01:57:27;;;;;;;4.80;2.53;;;;;;;;;;4541814;28;20818;-62
2021/07/16 01:59:38;;;;;;;7.57;3.03;;;;;;;;;;4541592;28;20036;-62
2021/07/16 02:01:48;;;;;;;5.72;2.70;;;;;;;;;;4543706;28;20128;-62
2021/07/16 02:03:59;;;;;;;6.00;2.63;;;;;;;;;;4543472;28;21810;-61
2021/07/16 02:06:10;;;;;;;4.37;2.40;;;;;;;;;;4543920;28;20112;-62
2021/07/16 02:08:22;;;;;;;5.15;2.65;;;;;;;;;;4492248;28;20541;-62
2021/07/16 02:10:36;;;;;;;4.00;2.35;;;;;;;;;;4540775;28;20034;-62
2021/07/16 02:12:46;;;;;;;4.97;2.60;;;;;;;;;;4541905;28;20044;-62
2021/07/16 02:14:57;;;;;;;4.60;2.53;;;;;;;;;;4541001;28;20454;-62
2021/07/16 02:17:08;;;;;;;6.25;2.80;;;;;;;;;;4540264;28;20612;-62
2021/07/16 02:19:18;;;;;;;5.53;2.57;;;;;;;;;;4541560;28;20086;-62
2021/07/16 02:21:28;;;;;;;5.10;2.43;;;;;;;;;;4543263;28;20077;-61
2021/07/16 02:23:39;;;;;;;7.33;2.80;;;;;;;;;;4542285;28;20044;-61
2021/07/16 02:25:50;;;;;;;6.40;2.80;;;;;;;;;;4541465;28;20418;-61
2021/07/16 02:28:04;;;;;;;5.65;2.20;;;;;;;;;;4542258;28;20025;-62
2021/07/16 02:30:17;;;;;;;5.68;2.30;;;;;;;;;;4523842;28;20041;-62
2021/07/16 02:32:27;;;;;;;6.15;2.65;;;;;;;;;;4508043;28;20042;-62
2021/07/16 02:34:38;;;;;;;5.97;2.87;;;;;;;;;;4543305;28;20549;-62
2021/07/16 02:36:48;;;;;;;6.70;2.63;;;;;;;;;;4538275;28;20549;-62
2021/07/16 02:38:58;;;;;;;5.97;2.33;;;;;;;;;;4540173;28;20032;-62
2021/07/16 02:41:09;;;;;;;6.27;2.30;;;;;;;;;;4540125;28;20040;-61
2021/07/16 02:43:20;;;;;;;4.30;2.10;;;;;;;;;;4542712;28;20033;-61
2021/07/16 02:45:31;;;;;;;5.97;2.45;;;;;;;;;;4541852;28;20025;-62
2021/07/16 02:47:42;;;;;;;7.15;2.60;;;;;;;;;;4527440;28;20033;-61
2021/07/16 02:49:52;;;;;;;4.75;2.45;;;;;;;;;;4541381;28;20041;-62
2021/07/16 02:52:03;;;;;;;4.60;2.33;;;;;;;;;;4542063;28;20086;-61
2021/07/16 02:54:13;;;;;;;6.33;2.53;;;;;;;;;;4542476;28;20446;-62
2021/07/16 02:56:24;;;;;;;4.97;2.40;;;;;;;;;;4524310;28;23915;-62
2021/07/16 02:58:34;;;;;;;5.40;2.10;;;;;;;;;;4541057;28;20029;-62
2021/07/16 03:00:45;;;;;;;5.00;2.30;;;;;;;;;;4541716;28;20132;-62
2021/07/16 03:02:56;;;;;;;3.67;2.08;;;;;;;;;;4540827;28;20135;-62
2021/07/16 03:05:18;;;;;;;5.68;2.65;;;;;;;;;;4540608;28;20052;-62
2021/07/16 03:07:29;;;;;;;5.05;2.25;;;;;;;;;;4521711;28;20056;-62
2021/07/16 03:09:39;;;;;;;4.13;1.90;;;;;;;;;;4523943;28;20040;-61
2021/07/16 03:11:49;;;;;;;5.73;2.43;;;;;;;;;;4541063;28;20062;-62
2021/07/16 03:14:00;;;;;;;3.53;2.00;;;;;;;;;;4522241;28;20116;-62
2021/07/16 03:16:10;;;;;;;5.43;2.30;;;;;;;;;;4539583;28;20033;-62
2021/07/16 03:18:21;;;;;;;4.00;2.10;;;;;;;;;;4538235;28;20041;-61
2021/07/16 03:20:37;;;;;;;4.63;2.22;;;;;;;;;;4540706;28;20045;-61
2021/07/16 03:22:47;;;;;;;4.28;2.33;;;;;;;;;;4545106;28;20048;-61
2021/07/16 03:24:58;;;;;;;5.43;2.53;;;;;;;;;;4544764;28;20202;-62
2021/07/16 03:27:08;;;;;;;5.73;2.63;;;;;;;;;;4523614;28;24807;-61
2021/07/16 03:29:19;;;;;;;4.30;2.20;;;;;;;;;;4526227;28;20041;-61
2021/07/16 03:31:29;;;;;;;4.70;2.30;;;;;;;;;;4543750;28;20095;-62
2021/07/16 03:33:40;;;;;;;5.57;2.30;;;;;;;;;;4527077;28;20025;-62
2021/07/16 03:35:50;;;;;;;4.03;2.00;;;;;;;;;;4544424;28;20033;-61
2021/07/16 03:38:00;;;;;;;4.70;2.27;;;;;;;;;;4543151;28;20029;-61
2021/07/16 03:40:13;;;;;;;5.53;2.07;;;;;;;;;;4528456;28;20030;-61
2021/07/16 03:42:24;;;;;;;5.07;2.20;;;;;;;;;;4543307;28;20040;-62
2021/07/16 03:44:34;;;;;;;4.23;2.07;;;;;;;;;;4527980;28;20033;-61
2021/07/16 03:46:45;;;;;;;3.77;1.93;;;;;;;;;;4545911;28;20044;-61
2021/07/16 03:48:56;;;;;;;5.20;1.90;;;;;;;;;;4543011;28;20112;-61
2021/07/16 03:51:06;;;;;;;6.40;2.40;;;;;;;;;;4525776;28;20028;-61
2021/07/16 03:53:17;;;;;;;6.00;2.63;;;;;;;;;;4543814;28;23406;-61
2021/07/16 03:55:27;;;;;;;5.63;2.37;;;;;;;;;;4523999;28;20097;-63
2021/07/16 03:57:43;;;;;;;5.20;2.20;;;;;;;;;;4541556;28;20400;-62
2021/07/16 03:59:55;;;;;;;3.45;1.83;;;;;;;;;;4542563;28;20036;-61
2021/07/16 04:02:06;;;;;;;3.38;1.80;;;;;;;;;;4543406;28;20045;-62
2021/07/16 04:04:16;;;;;;;4.53;2.03;;;;;;;;;;4543826;28;20021;-61
2021/07/16 04:06:27;;;;;;;3.07;1.53;;;;;;;;;;4544800;28;20083;-61
2021/07/16 04:08:39;;;;;;;2.90;1.60;;;;;;;;;;4545252;28;20447;-61
2021/07/16 04:10:49;;;;;;;4.68;1.92;;;;;;;;;;4526856;28;20071;-62
2021/07/16 04:13:02;;;;;;;5.40;1.80;;;;;;;;;;4524070;28;20123;-62
2021/07/16 04:15:13;;;;;;;4.18;1.80;;;;;;;;;;4543324;28;20029;-62
2021/07/16 04:17:26;;;;;;;4.70;1.90;;;;;;;;;;4540381;28;21133;-61
2021/07/16 04:19:37;;;;;;;3.90;1.63;;;;;;;;;;4524430;28;20069;-63
2021/07/16 04:21:47;;;;;;;4.28;1.70;;;;;;;;;;4542877;28;20056;-61
2021/07/16 04:23:58;;;;;;;3.67;1.97;;;;;;;;;;4542781;28;20043;-61
2021/07/16 04:26:08;;;;;;;3.93;1.90;;;;;;;;;;4542386;28;20033;-62
2021/07/16 04:28:18;;;;;;;3.80;1.70;;;;;;;;;;4541058;28;20033;-61
2021/07/16 04:30:30;;;;;;;4.47;2.03;;;;;;;;;;4525510;28;20153;-61
2021/07/16 04:32:41;;;;;;;4.45;1.73;;;;;;;;;;4542694;28;20056;-61
2021/07/16 04:34:52;;;;;;;5.65;2.00;;;;;;;;;;4542447;28;20021;-61
2021/07/16 04:37:04;;;;;;;4.73;1.87;;;;;;;;;;4541426;28;20044;-61
2021/07/16 04:39:14;;;;;;;6.28;2.00;;;;;;;;;;4523737;28;20033;-61
2021/07/16 04:41:25;;;;;;;4.20;2.03;;;;;;;;;;4543254;28;20510;-61
2021/07/16 04:43:35;;;;;;;4.27;2.13;;;;;;;;;;4539179;28;20040;-61
2021/07/16 04:45:46;;;;;;;4.93;1.87;;;;;;;;;;4527885;28;20809;-61
2021/07/16 04:47:56;;;;;;;4.50;2.20;;;;;;;;;;4524230;28;20033;-61
2021/07/16 04:50:07;;;;;;;3.30;1.80;;;;;;;;;;4528181;28;20473;-61
2021/07/16 04:52:17;;;;;;;3.33;1.70;;;;;;;;;;4540632;28;20136;-62
2021/07/16 04:54:28;;;;;;;6.07;2.40;;;;;;;;;;4523062;28;20049;-62
2021/07/16 04:56:38;;;;;;;4.63;2.00;;;;;;;;;;4525193;28;20146;-62
2021/07/16 04:58:49;;;;;;;6.07;2.03;;;;;;;;;;4542802;28;20028;-61
2021/07/16 05:00:59;;;;;;;4.67;2.13;;;;;;;;;;4541844;28;20043;-61
2021/07/16 05:03:10;;;;;;;5.33;2.00;;;;;;;;;;4524391;28;20124;-62
2021/07/16 05:05:20;;;;;;;5.73;2.07;;;;;;;;;;4539635;28;20052;-61
2021/07/16 05:07:31;;;;;;;6.40;2.30;;;;;;;;;;4541980;28;20036;-61
2021/07/16 05:09:41;;;;;;;5.93;2.20;;;;;;;;;;4525139;28;20136;-62
2021/07/16 05:11:52;;;;;;;6.00;2.23;;;;;;;;;;4541505;28;20099;-62
2021/07/16 05:14:02;;;;;;;5.43;2.10;;;;;;;;;;4521877;28;20598;-61
2021/07/16 05:16:15;;;;;;;4.47;2.07;;;;;;;;;;4539861;28;20520;-62
2021/07/16 05:18:25;;;;;;;5.80;2.53;;;;;;;;;;4541217;28;20044;-61
2021/07/16 05:20:36;;;;;;;4.40;2.20;;;;;;;;;;4540791;28;20598;-61
2021/07/16 05:22:48;;;;;;;5.60;2.43;;;;;;;;;;4540440;28;20088;-62
2021/07/16 05:24:59;;;;;;;4.93;2.30;;;;;;;;;;4544057;28;20095;-62
2021/07/16 05:27:09;;;;;;;6.60;2.22;;;;;;;;;;4543733;28;20552;-62
2021/07/16 05:29:20;;;;;;;5.93;2.50;;;;;;;;;;4542197;28;20139;-61
2021/07/16 05:31:30;;;;;;;4.47;2.10;;;;;;;;;;4544199;28;20028;-62
2021/07/16 05:33:40;;;;;;;4.47;2.07;;;;;;;;;;4524410;28;20032;-62
2021/07/16 05:35:52;;;;;;;4.17;2.00;;;;;;;;;;4541810;28;20037;-62
2021/07/16 05:38:04;;;;;;;4.65;2.00;;;;;;;;;;4541350;28;20083;-61
2021/07/16 05:40:15;;;;;;;4.55;2.30;;;;;;;;;;4541738;28;20064;-62
2021/07/16 05:42:25;;;;;;;3.85;2.15;;;;;;;;;;4541010;28;20052;-61
2021/07/16 05:44:36;;;;;;;4.17;1.90;;;;;;;;;;4523724;28;20801;-61
2021/07/16 05:46:46;;;;;;;5.77;2.50;;;;;;;;;;4542333;28;20063;-62
2021/07/16 05:48:57;;;;;;;5.33;2.20;;;;;;;;;;4543417;28;20037;-61
2021/07/16 05:51:08;;;;;;;5.70;2.28;;;;;;;;;;4526898;28;20029;-61
2021/07/16 05:53:19;;;;;;;4.13;2.00;;;;;;;;;;4541742;28;20033;-61
2021/07/16 05:55:30;;;;;;;4.75;2.30;;;;;;;;;;4508543;28;20327;-62
2021/07/16 05:57:40;;;;;;;4.63;2.60;;;;;;;;;;4510991;28;20064;-61
2021/07/16 05:59:51;;;;;;;4.80;2.37;;;;;;;;;;4541038;28;20067;-61
2021/07/16 06:02:02;;;;;;;5.83;2.53;;;;;;;;;;4543703;28;20044;-61
2021/07/16 06:04:12;;;;;;;5.80;2.38;;;;;;;;;;4540691;28;20034;-61
2021/07/16 06:06:23;;;;;;;5.43;2.53;;;;;;;;;;4522839;28;20608;-61
2021/07/16 06:08:33;;;;;;;5.93;2.47;;;;;;;;;;4540874;28;20041;-61
2021/07/16 06:10:43;;;;;;;6.03;2.47;;;;;;;;;;4541565;28;26366;-61
2021/07/16 06:12:54;;;;;;;6.73;2.63;;;;;;;;;;4526844;28;20032;-61
2021/07/16 06:15:06;;;;;;;5.73;2.90;;;;;;;;;;4522129;28;20089;-61
2021/07/16 06:17:16;;;;;;;5.95;2.97;;;;;;;;;;4527686;28;20644;-61
2021/07/16 06:19:26;;;;;;;5.90;3.00;;;;;;;;;;4539059;28;20119;-61
2021/07/16 06:21:37;;;;;;;5.73;3.43;;;;;;;;;;4539737;28;20429;-61
2021/07/16 06:23:47;;;;;;;5.70;2.80;;;;;;;;;;4541376;28;21265;-61
2021/07/16 06:25:58;;;;;;;6.90;3.23;;;;;;;;;;4542714;28;20025;-61
2021/07/16 06:28:08;;;;;;;6.87;3.30;;;;;;;;;;4523184;28;20116;-61
2021/07/16 06:30:19;;;;;;;6.73;3.10;;;;;;;;;;4542176;28;20087;-61
2021/07/16 06:32:29;;;;;;;6.73;3.30;;;;;;;;;;4541790;28;20064;-61
2021/07/16 06:34:40;;;;;;;6.30;3.00;;;;;;;;;;4543512;28;20386;-61
2021/07/16 06:36:50;;;;;;;6.95;3.22;;;;;;;;;;4523027;28;20042;-61
2021/07/16 06:39:01;;;;;;;5.50;2.70;;;;;;;;;;4539541;28;20536;-61
2021/07/16 06:41:12;;;;;;;6.37;3.17;;;;;;;;;;4526110;28;20943;-61
2021/07/16 06:43:22;;;;;;;5.87;3.00;;;;;;;;;;4540476;28;20321;-61
2021/07/16 06:45:33;;;;;;;7.27;3.07;;;;;;;;;;4504867;28;20038;-61
2021/07/16 06:47:43;;;;;;;5.60;2.90;;;;;;;;;;4507359;28;20041;-61
2021/07/16 06:49:53;;;;;;;5.97;3.00;;;;;;;;;;4542136;28;20037;-60
2021/07/16 06:52:04;;;;;;;4.13;2.57;;;;;;;;;;4542046;28;20040;-61
2021/07/16 06:54:15;;;;;;;6.07;2.67;;;;;;;;;;4540353;28;20048;-61
2021/07/16 06:56:25;;;;;;;6.30;3.07;;;;;;;;;;4541111;28;20021;-61
2021/07/16 06:58:36;;;;;;;4.73;2.53;;;;;;;;;;4524901;28;20081;-61
2021/07/16 07:00:47;;;;;;;5.67;2.67;;;;;;;;;;4541793;28;20169;-61
2021/07/16 07:02:57;;;;;;;;;;;;;;;;;;4544464;28;20048;-61
2021/07/16 07:05:08;;;;;;;6.18;3.03;;;;;;;;;;4544092;28;20377;-61
2021/07/16 07:07:19;;;;;;;4.38;2.53;;;;;;;;;;4543968;28;20092;-61
2021/07/16 07:09:30;;;;;;;6.20;2.80;;;;;;;;;;4544275;28;21038;-61
2021/07/16 07:11:40;;;;;;;5.73;2.70;;;;;;;;;;4542215;28;20041;-61
2021/07/16 07:13:51;;;;;;;5.40;3.03;;;;;;;;;;4543373;28;20031;-62
2021/07/16 07:16:02;;;;;;;6.67;2.80;;;;;;;;;;4545921;28;20044;-61
2021/07/16 07:18:12;;;;;;;5.50;2.80;;;;;;;;;;4543862;28;20039;-61
2021/07/16 07:20:23;;;;;;;5.00;2.83;;;;;;;;;;4545468;28;20898;-61
2021/07/16 07:22:34;;;;;;;4.77;2.67;;;;;;;;;;4545351;28;20047;-61
2021/07/16 07:24:44;;;;;;;5.67;2.83;;;;;;;;;;4524872;28;20722;-61
2021/07/16 07:26:57;;;;;;;5.07;2.40;;;;;;;;;;4539964;28;20033;-61
2021/07/16 07:29:07;;;;;;;4.35;2.75;;;;;;;;;;4525779;28;20087;-61
2021/07/16 07:31:18;;;;;;;5.10;2.50;;;;;;;;;;4543726;28;20678;-60
2021/07/16 07:33:28;;;;;;;5.30;2.50;;;;;;;;;;4543231;28;20029;-61
2021/07/16 07:35:38;;;;;;;4.40;2.33;;;;;;;;;;4523900;28;20021;-62
2021/07/16 07:37:49;;;;;;;5.70;2.87;;;;;;;;;;4543354;28;20029;-61
2021/07/16 07:40:02;;;;;;;6.18;2.60;;;;;;;;;;4542603;28;20029;-61
2021/07/16 07:42:17;;;;;;;4.38;2.00;;;;;;;;;;4526186;28;20077;-61
2021/07/16 07:44:27;;;;;;;3.50;2.10;;;;;;;;;;4527501;28;20037;-61
2021/07/16 07:46:38;;;;;;;4.33;2.13;;;;;;;;;;4544528;28;20048;-61
2021/07/16 07:48:48;;;;;;;4.53;2.40;;;;;;;;;;4543041;28;20090;-61
2021/07/16 07:50:59;;;;;;;3.87;2.20;;;;;;;;;;4524003;28;20029;-61
2021/07/16 07:53:10;;;;;;;4.15;1.92;;;;;;;;;;4541933;28;20033;-61
2021/07/16 07:55:23;;;;;;;4.82;2.17;;;;;;;;;;4543328;28;20116;-61
2021/07/16 07:57:33;;;;;;;3.78;2.10;;;;;;;;;;4527251;28;20033;-61
2021/07/16 07:59:44;;;;;;;5.60;2.10;;;;;;;;;;4507818;28;20466;-61
2021/07/16 08:01:54;;;;;;;6.87;2.57;;;;;;;;;;4541654;28;20037;-61
2021/07/16 08:04:05;;;;;;;5.53;2.40;;;;;;;;;;4540844;28;20490;-61
2021/07/16 08:06:15;;;;;;;4.13;2.20;;;;;;;;;;4542708;28;20487;-62
2021/07/16 08:08:25;;;;;;;5.20;2.27;;;;;;;;;;4540205;28;20619;-61
2021/07/16 08:10:36;;;;;;;6.53;2.47;;;;;;;;;;4527246;28;20034;-61
2021/07/16 08:12:47;;;;;;;5.60;2.43;;;;;;;;;;4544499;28;20041;-61
2021/07/16 08:14:57;;;;;;;7.63;2.88;;;;;;;;;;4526320;28;20033;-61
2021/07/16 08:17:08;;;;;;;3.87;2.00;;;;;;;;;;4540502;28;20044;-61
2021/07/16 08:19:18;;;;;;;6.43;2.47;;;;;;;;;;4543093;28;26401;-61
2021/07/16 08:21:29;;;;;;;6.20;2.17;;;;;;;;;;4525655;28;20617;-61
2021/07/16 08:23:39;;;;;;;5.60;2.60;;;;;;;;;;4541846;28;20039;-61
2021/07/16 08:25:49;;;;;;;6.63;2.37;;;;;;;;;;4543355;28;20103;-61
2021/07/16 08:28:03;;;;;;;6.70;2.40;;;;;;;;;;4543265;28;20485;-61
2021/07/16 08:30:14;;;;;;;5.63;2.63;;;;;;;;;;4542608;28;20025;-60
2021/07/16 08:32:24;;;;;;;6.10;2.75;;;;;;;;;;4543593;28;20489;-61
2021/07/16 08:34:35;;;;;;;6.57;2.93;;;;;;;;;;4541649;28;20136;-61
2021/07/16 08:36:45;;;;;;;6.97;2.57;;;;;;;;;;4526462;28;20061;-61
2021/07/16 08:38:56;;;;;;;7.03;2.57;;;;;;;;;;4542326;28;20030;-61
2021/07/16 08:41:06;;;;;;;4.87;2.43;;;;;;;;;;4541752;28;20518;-61
2021/07/16 08:43:19;;;;;;;6.17;2.33;;;;;;;;;;4524776;28;20046;-61
2021/07/16 08:45:29;;;;;;;8.25;2.53;;;;;;;;;;4527302;28;20120;-61
2021/07/16 08:47:40;;;;;;;6.03;2.63;;;;;;;;;;4541695;28;20029;-61
2021/07/16 08:49:50;;;;;;;5.35;2.40;;;;;;;;;;4542869;28;20132;-61
2021/07/16 08:52:01;;;;;;;6.13;2.67;;;;;;;;;;4523966;28;20152;-61
2021/07/16 08:54:17;;;;;;;5.03;2.47;;;;;;;;;;4524330;28;20409;-61
2021/07/16 08:56:31;;;;;;;5.10;2.60;;;;;;;;;;4540832;28;20043;-61
2021/07/16 08:58:42;;;;;;;5.55;2.50;;;;;;;;;;4539228;28;20041;-61
2021/07/16 09:00:53;;;;;;;5.78;2.65;;;;;;;;;;4543700;28;20548;-61
2021/07/16 09:03:03;;;;;;;6.47;2.97;;;;;;;;;;4542845;28;20120;-61
2021/07/16 09:05:14;;;;;;;6.27;2.87;;;;;;;;;;4543924;28;20041;-61
2021/07/16 09:07:24;;;;;;;5.90;2.80;;;;;;;;;;4541303;28;20044;-61
2021/07/16 09:09:36;;;;;;;5.23;2.70;;;;;;;;;;4543045;28;20044;-61
2021/07/16 09:11:53;;;;;;;6.97;2.72;;;;;;;;;;4529581;28;20033;-61
2021/07/16 09:14:03;;;;;;;4.22;2.42;;;;;;;;;;4543274;28;20081;-60
2021/07/16 09:16:18;;;;;;;5.40;2.50;;;;;;;;;;4541989;28;20124;-61
2021/07/16 09:18:30;;;;;;;5.93;2.90;;;;;;;;;;4542893;28;20028;-60
2021/07/16 09:20:41;;;;;;;5.53;2.70;;;;;;;;;;4543516;28;20083;-61
2021/07/16 09:23:14;;;;;;;5.22;2.50;;;;;;;;;;4522466;28;20829;-61
2021/07/16 09:25:25;;;;;;;6.20;2.58;;;;;;;;;;4525113;28;20780;-61
2021/07/16 09:27:41;;;;;;;5.50;2.70;;;;;;;;;;4541912;28;20060;-61
2021/07/16 09:29:51;;;;;;;6.13;2.60;;;;;;;;;;4543048;28;20055;-60
2021/07/16 09:32:08;;;;;;;4.53;2.40;;;;;;;;;;4521822;28;20181;-61
2021/07/16 09:34:21;;;;;;;6.07;2.65;;;;;;;;;;4541612;28;20073;-61
2021/07/16 09:36:34;;;;;;;4.55;2.20;;;;;;;;;;4543198;28;20040;-61
2021/07/16 09:38:49;;;;;;;5.25;2.28;;;;;;;;;;4524171;28;20025;-61
2021/07/16 09:41:05;;;;;;;6.30;2.42;;;;;;;;;;4542302;28;20812;-61
2021/07/16 09:43:21;;;;;;;4.97;2.33;;;;;;;;;;4524546;28;20076;-61
2021/07/16 09:45:33;;;;;;;6.80;2.25;;;;;;;;;;4542762;28;20037;-61
2021/07/16 09:47:43;;;;;;;5.90;2.38;;;;;;;;;;4528935;28;20485;-61
2021/07/16 09:50:12;;;;;;;6.93;2.83;;;;;;;;;;4525285;28;20029;-61
2021/07/16 09:52:22;;;;;;;6.82;2.47;;;;;;;;;;4527528;28;20588;-61
2021/07/16 09:54:33;;;;;;;6.10;2.50;;;;;;;;;;4544547;28;20053;-61
2021/07/16 09:56:44;;;;;;;5.93;2.47;;;;;;;;;;4542223;28;20112;-61
2021/07/16 09:59:06;;;;;;;7.15;2.90;;;;;;;;;;4544315;28;20554;-61
2021/07/16 10:01:17;;;;;;;5.68;2.53;;;;;;;;;;4538550;28;20037;-61
2021/07/16 10:03:27;;;;;;;5.70;2.20;;;;;;;;;;4542651;28;20021;-61
2021/07/16 10:05:39;;;;;;;4.33;2.10;;;;;;;;;;4539493;28;20769;-61
2021/07/16 10:07:51;;;;;;;6.32;2.75;;;;;;;;;;4522375;28;20068;-61
2021/07/16 10:10:02;;;;;;;5.65;2.20;;;;;;;;;;4523202;28;20049;-61
2021/07/16 10:12:13;;;;;;;6.97;2.30;;;;;;;;;;4540550;28;20048;-60
2021/07/16 10:14:24;;;;;;;6.20;2.17;;;;;;;;;;4523839;28;20430;-60
2021/07/16 10:16:39;;;;;;;5.50;2.13;;;;;;;;;;4540655;28;20202;-61
2021/07/16 10:18:51;;;;;;;7.35;2.35;;;;;;;;;;4520466;28;20576;-61
2021/07/16 10:21:02;;;;;;;6.07;2.40;;;;;;;;;;4541143;28;20036;-62
2021/07/16 10:23:13;;;;;;;6.47;2.43;;;;;;;;;;4540541;28;20052;-61
2021/07/16 10:25:23;;;;;;;4.07;2.00;;;;;;;;;;4540038;28;20099;-61
2021/07/16 10:27:34;;;;;;;5.50;2.20;;;;;;;;;;4523997;28;20556;-61
2021/07/16 10:29:47;;;;;;;4.50;2.23;;;;;;;;;;4525061;28;20039;-61
2021/07/16 10:31:58;;;;;;;5.18;2.50;;;;;;;;;;4524361;28;20022;-61
2021/07/16 10:34:29;;;;;;;5.07;2.40;;;;;;;;;;4527117;28;20041;-61
2021/07/16 10:36:42;;;;;;;4.75;2.15;;;;;;;;;;4544634;28;20040;-61
2021/07/16 10:38:52;;;;;;;5.40;2.35;;;;;;;;;;4543159;28;20037;-61
2021/07/16 10:41:03;;;;;;;5.77;2.40;;;;;;;;;;4545831;28;20044;-61
2021/07/16 10:43:23;;;;;;;6.27;2.50;;;;;;;;;;4546425;28;20037;-61
2021/07/16 10:45:36;;;;;;;5.90;2.30;;;;;;;;;;4546232;28;20115;-61
2021/07/16 10:47:49;;;;;;;5.25;2.67;;;;;;;;;;4543382;28;20037;-61
2021/07/16 10:50:00;;;;;;;5.18;2.50;;;;;;;;;;4543559;28;20186;-61
2021/07/16 10:52:11;;;;;;;6.68;2.60;;;;;;;;;;4544196;28;20816;-61
2021/07/16 10:54:45;;;;;;;5.77;2.50;;;;;;;;;;4544940;28;20112;-61
2021/07/16 10:57:11;;;;;;;5.13;2.50;;;;;;;;;;4527920;28;20497;-61
2021/07/16 10:59:46;;;;;;;7.57;2.75;;;;;;;;;;4543765;28;20913;-61
2021/07/16 11:01:56;;;;;;;6.22;2.55;;;;;;;;;;4543025;28;20040;-61
2021/07/16 11:04:30;;;;;;;5.93;2.83;;;;;;;;;;4547388;28;20033;-61
2021/07/16 11:06:51;;;;;;;7.00;2.90;;;;;;;;;;4527409;28;20565;-61
2021/07/16 11:09:01;;;;;;;7.60;2.78;;;;;;;;;;4544563;28;20036;-61
2021/07/16 11:11:17;;;;;;;5.37;2.80;;;;;;;;;;4543711;28;20040;-61
2021/07/16 11:13:35;;;;;;;5.30;2.55;;;;;;;;;;4543357;28;20029;-61
2021/07/16 11:15:45;;;;;;;5.32;2.60;;;;;;;;;;4526906;28;20039;-61
2021/07/16 11:17:56;;;;;;;4.80;2.77;;;;;;;;;;4544089;28;20039;-61
2021/07/16 11:20:16;;;;;;;5.68;2.67;;;;;;;;;;4544387;28;20103;-61
2021/07/16 11:22:26;;;;;;;5.85;2.72;;;;;;;;;;4525249;28;20144;-61
2021/07/16 11:24:40;;;;;;;5.33;2.50;;;;;;;;;;4544212;28;20045;-61
2021/07/16 11:27:10;;;;;;;5.50;2.55;;;;;;;;;;4544424;28;20040;-61
2021/07/16 11:29:25;;;;;;;5.90;2.50;;;;;;;;;;4543958;28;20047;-61
2021/07/16 11:31:35;;;;;;;5.60;2.50;;;;;;;;;;4545358;28;20123;-61
2021/07/16 11:33:56;;;;;;;6.20;2.60;;;;;;;;;;4540865;28;20486;-61
2021/07/16 11:36:07;;;;;;;5.20;2.37;;;;;;;;;;4544523;28;20076;-61
2021/07/16 11:38:17;;;;;;;4.27;2.30;;;;;;;;;;4526641;28;20396;-61
2021/07/16 11:40:28;;;;;;;4.70;2.38;;;;;;;;;;4543453;28;20068;-60
2021/07/16 11:42:41;;;;;;;6.13;2.60;;;;;;;;;;4546140;28;20084;-61
2021/07/16 11:44:51;;;;;;;6.47;2.85;;;;;;;;;;4528223;28;20036;-61
2021/07/16 11:47:18;;;;;;;4.43;2.27;;;;;;;;;;4545181;28;20087;-61
2021/07/16 11:49:29;;;;;;;5.80;2.45;;;;;;;;;;4528061;28;20108;-61
2021/07/16 11:51:39;;;;;;;6.57;2.50;;;;;;;;;;4512927;28;20327;-61
2021/07/16 11:53:49;;;;;;;6.20;2.37;;;;;;;;;;4539496;28;20540;-61
2021/07/16 11:56:11;;;;;;;5.80;2.60;;;;;;;;;;4544409;28;20036;-61
2021/07/16 11:58:21;;;;;;;7.25;2.85;;;;;;;;;;4543312;28;20060;-61
2021/07/16 12:00:42;;;;;;;5.77;2.57;;;;;;;;;;4544483;28;20123;-61
2021/07/16 12:03:18;;;;;;;4.87;2.43;;;;;;;;;;4524877;28;20856;-61
2021/07/16 12:05:29;;;;;;;4.90;2.40;;;;;;;;;;4544797;28;20044;-61
2021/07/16 12:07:40;;;;;;;5.53;2.47;;;;;;;;;;4523151;28;20136;-61
2021/07/16 12:09:51;;;;;;;4.95;2.42;;;;;;;;;;4545820;28;20032;-61
2021/07/16 12:12:03;;;;;;;5.43;2.63;;;;;;;;;;4540046;28;20029;-61
2021/07/16 12:14:14;;;;;;;6.15;2.58;;;;;;;;;;4541154;28;20044;-61
2021/07/16 12:16:24;;;;;;;7.37;2.60;;;;;;;;;;4527202;28;20025;-61
2021/07/16 12:18:37;;;;;;;7.00;2.92;;;;;;;;;;4541758;28;20087;-61
2021/07/16 12:20:54;;;;;;;5.22;2.63;;;;;;;;;;4527578;28;20055;-60
2021/07/16 12:23:09;;;;;;;4.15;2.30;;;;;;;;;;4525093;28;20132;-60
2021/07/16 12:25:20;;;;;;;6.00;2.58;;;;;;;;;;4524347;28;20040;-61
2021/07/16 12:27:31;;;;;;;6.50;2.60;;;;;;;;;;4542237;28;20031;-61
2021/07/16 12:29:42;;;;;;;4.00;2.30;;;;;;;;;;4541772;28;20060;-61
2021/07/16 12:31:52;;;;;;;5.67;2.80;;;;;;;;;;4542340;28;20043;-61
2021/07/16 12:34:20;;;;;;;6.90;2.93;;;;;;;;;;4544236;28;20626;-60
2021/07/16 12:36:33;;;;;;;4.97;2.50;;;;;;;;;;4542280;28;20029;-61
2021/07/16 12:38:46;;;;;;;5.93;2.50;;;;;;;;;;4542246;28;20048;-61
2021/07/16 12:41:06;;;;;;;7.00;2.40;;;;;;;;;;4542422;28;20039;-61
2021/07/16 12:43:18;;;;;;;6.35;2.72;;;;;;;;;;4529342;28;20785;-61
2021/07/16 12:45:44;;;;;;;6.57;2.60;;;;;;;;;;4540943;28;20120;-61
2021/07/16 12:47:56;;;;;;;5.20;2.70;;;;;;;;;;4541879;28;20718;-61
2021/07/16 12:50:17;;;;;;;5.07;2.60;;;;;;;;;;4543771;28;20037;-61
2021/07/16 12:52:28;;;;;;;;;;;;;;;;;;4543455;28;20140;-61
2021/07/16 12:54:38;;;;;;;5.90;2.70;;;;;;;;;;4543363;28;20504;-61
2021/07/16 12:56:49;;;;;;;4.83;2.40;;;;;;;;;;4540062;28;20065;-61
2021/07/16 12:59:00;;;;;;;5.47;2.33;;;;;;;;;;4542297;28;20079;-61
2021/07/16 13:01:12;;;;;;;6.05;2.10;;;;;;;;;;4543302;28;20744;-61
2021/07/16 13:03:24;;;;;;;6.43;2.78;;;;;;;;;;4509401;28;20033;-60
2021/07/16 13:05:34;;;;;;;5.65;2.60;;;;;;;;;;4523004;28;20049;-61
2021/07/16 13:07:45;;;;;;;5.97;2.43;;;;;;;;;;4542675;28;20052;-61
2021/07/16 13:09:55;;;;;;;4.73;2.43;;;;;;;;;;4542886;28;20029;-61
2021/07/16 13:12:12;;;;;;;7.43;2.50;;;;;;;;;;4542929;28;20033;-61